sensor_id;sensor_type;location;lat;lon;timestamp;pressure;altitude;pressure_sealevel;temperature;humidity
78411;BME280;67706;51.074;-1.796;2023-05-29T00:01:44;102075.44;;;12.95;77.12
78411;BME280;67706;51.074;-1.796;2023-05-29T00:04:11;102079.41;;;12.93;76.83
78411;BME280;67706;51.074;-1.796;2023-05-29T00:06:38;102079.19;;;12.80;77.57
78411;BME280;67706;51.074;-1.796;2023-05-29T00:09:06;102073.16;;;12.76;77.62
78411;BME280;67706;51.074;-1.796;2023-05-29T00:11:33;102079.03;;;12.73;77.78
78411;BME280;67706;51.074;-1.796;2023-05-29T00:14:00;102083.63;;;12.81;77.33
78411;BME280;67706;51.074;-1.796;2023-05-29T00:16:26;102079.53;;;12.76;77.08
78411;BME280;67706;51.074;-1.796;2023-05-29T00:18:54;102087.59;;;12.78;77.21
78411;BME280;67706;51.074;-1.796;2023-05-29T00:21:21;102092.28;;;12.69;77.36
78411;BME280;67706;51.074;-1.796;2023-05-29T00:23:48;102087.34;;;12.65;77.53
78411;BME280;67706;51.074;-1.796;2023-05-29T00:26:16;102081.84;;;12.65;77.00
78411;BME280;67706;51.074;-1.796;2023-05-29T00:28:43;102093.69;;;12.65;75.74
78411;BME280;67706;51.074;-1.796;2023-05-29T00:31:10;102101.13;;;12.65;74.78
78411;BME280;67706;51.074;-1.796;2023-05-29T00:33:37;102112.56;;;12.46;74.26
78411;BME280;67706;51.074;-1.796;2023-05-29T00:36:04;102106.56;;;12.42;73.86
78411;BME280;67706;51.074;-1.796;2023-05-29T00:38:31;102108.63;;;12.40;73.99
78411;BME280;67706;51.074;-1.796;2023-05-29T00:40:57;102104.88;;;12.33;73.69
78411;BME280;67706;51.074;-1.796;2023-05-29T00:43:26;102116.38;;;12.37;73.24
78411;BME280;67706;51.074;-1.796;2023-05-29T00:45:52;102112.84;;;12.20;73.25
78411;BME280;67706;51.074;-1.796;2023-05-29T00:48:19;102112.34;;;12.17;73.32
78411;BME280;67706;51.074;-1.796;2023-05-29T00:50:46;102113.19;;;12.17;72.42
78411;BME280;67706;51.074;-1.796;2023-05-29T00:53:14;102118.38;;;12.12;72.08
78411;BME280;67706;51.074;-1.796;2023-05-29T00:55:41;102119.94;;;11.98;71.35
78411;BME280;67706;51.074;-1.796;2023-05-29T00:58:08;102130.28;;;11.88;70.94
78411;BME280;67706;51.074;-1.796;2023-05-29T01:00:36;102117.06;;;11.84;69.73
78411;BME280;67706;51.074;-1.796;2023-05-29T01:03:04;102126.88;;;11.78;69.61
78411;BME280;67706;51.074;-1.796;2023-05-29T01:05:34;102129.13;;;11.83;68.05
78411;BME280;67706;51.074;-1.796;2023-05-29T01:08:01;102119.84;;;11.76;68.50
78411;BME280;67706;51.074;-1.796;2023-05-29T01:10:28;102129.44;;;11.64;68.69
78411;BME280;67706;51.074;-1.796;2023-05-29T01:12:59;102126.53;;;11.49;69.44
78411;BME280;67706;51.074;-1.796;2023-05-29T01:15:35;102126.19;;;11.60;69.19
78411;BME280;67706;51.074;-1.796;2023-05-29T01:18:17;102128.09;;;11.60;69.91
78411;BME280;67706;51.074;-1.796;2023-05-29T01:20:50;102144.91;;;11.41;70.66
78411;BME280;67706;51.074;-1.796;2023-05-29T01:23:40;102138.72;;;11.39;69.27
78411;BME280;67706;51.074;-1.796;2023-05-29T01:26:42;102141.81;;;11.28;68.05
78411;BME280;67706;51.074;-1.796;2023-05-29T01:29:14;102149.53;;;11.16;67.89
78411;BME280;67706;51.074;-1.796;2023-05-29T01:31:42;102147.66;;;11.25;67.48
78411;BME280;67706;51.074;-1.796;2023-05-29T01:34:10;102154.16;;;11.15;67.40
78411;BME280;67706;51.074;-1.796;2023-05-29T01:36:37;102160.66;;;11.14;67.44
78411;BME280;67706;51.074;-1.796;2023-05-29T01:39:04;102154.84;;;11.09;67.03
78411;BME280;67706;51.074;-1.796;2023-05-29T01:41:31;102163.06;;;11.01;67.08
78411;BME280;67706;51.074;-1.796;2023-05-29T01:44:03;102161.69;;;10.97;66.87
78411;BME280;67706;51.074;-1.796;2023-05-29T01:46:30;102163.03;;;10.93;65.87
78411;BME280;67706;51.074;-1.796;2023-05-29T01:48:57;102169.19;;;10.87;65.75
78411;BME280;67706;51.074;-1.796;2023-05-29T01:51:23;102156.50;;;10.86;65.28
78411;BME280;67706;51.074;-1.796;2023-05-29T01:53:50;102155.81;;;10.84;65.64
78411;BME280;67706;51.074;-1.796;2023-05-29T01:56:17;102152.59;;;10.89;65.25
78411;BME280;67706;51.074;-1.796;2023-05-29T01:58:44;102162.19;;;10.85;65.32
78411;BME280;67706;51.074;-1.796;2023-05-29T02:01:13;102160.59;;;10.74;65.57
78411;BME280;67706;51.074;-1.796;2023-05-29T02:03:40;102164.72;;;10.70;65.59
78411;BME280;67706;51.074;-1.796;2023-05-29T02:06:06;102157.50;;;10.69;65.79
78411;BME280;67706;51.074;-1.796;2023-05-29T02:08:33;102160.22;;;10.69;65.98
78411;BME280;67706;51.074;-1.796;2023-05-29T02:11:00;102154.69;;;10.53;66.23
78411;BME280;67706;51.074;-1.796;2023-05-29T02:13:27;102151.94;;;10.53;66.04
78411;BME280;67706;51.074;-1.796;2023-05-29T02:15:53;102159.28;;;10.45;66.17
78411;BME280;67706;51.074;-1.796;2023-05-29T02:18:21;102147.97;;;10.48;66.05
78411;BME280;67706;51.074;-1.796;2023-05-29T02:20:48;102152.09;;;10.52;65.74
78411;BME280;67706;51.074;-1.796;2023-05-29T02:23:15;102150.19;;;10.44;66.03
78411;BME280;67706;51.074;-1.796;2023-05-29T02:25:42;102152.72;;;10.37;65.99
78411;BME280;67706;51.074;-1.796;2023-05-29T02:28:08;102153.22;;;10.33;65.96
78411;BME280;67706;51.074;-1.796;2023-05-29T02:30:35;102151.69;;;10.30;65.76
78411;BME280;67706;51.074;-1.796;2023-05-29T02:33:02;102154.88;;;10.18;66.22
78411;BME280;67706;51.074;-1.796;2023-05-29T02:35:30;102162.44;;;10.24;66.29
78411;BME280;67706;51.074;-1.796;2023-05-29T02:37:57;102154.50;;;10.13;66.61
78411;BME280;67706;51.074;-1.796;2023-05-29T02:40:23;102156.91;;;10.16;66.72
78411;BME280;67706;51.074;-1.796;2023-05-29T02:42:50;102153.66;;;10.20;67.01
78411;BME280;67706;51.074;-1.796;2023-05-29T02:45:17;102158.16;;;10.04;67.44
78411;BME280;67706;51.074;-1.796;2023-05-29T02:47:44;102155.22;;;9.97;67.68
78411;BME280;67706;51.074;-1.796;2023-05-29T02:50:10;102157.38;;;9.86;68.08
78411;BME280;67706;51.074;-1.796;2023-05-29T02:52:41;102156.28;;;9.79;68.08
78411;BME280;67706;51.074;-1.796;2023-05-29T02:55:08;102150.13;;;9.77;68.51
78411;BME280;67706;51.074;-1.796;2023-05-29T02:57:35;102144.19;;;9.63;68.79
78411;BME280;67706;51.074;-1.796;2023-05-29T03:00:01;102143.59;;;9.70;68.66
78411;BME280;67706;51.074;-1.796;2023-05-29T03:02:31;102147.00;;;9.72;68.11
78411;BME280;67706;51.074;-1.796;2023-05-29T03:04:58;102139.28;;;9.67;68.26
78411;BME280;67706;51.074;-1.796;2023-05-29T03:07:25;102145.63;;;9.68;68.24
78411;BME280;67706;51.074;-1.796;2023-05-29T03:09:53;102142.66;;;9.61;68.60
78411;BME280;67706;51.074;-1.796;2023-05-29T03:12:20;102139.56;;;9.64;68.36
78411;BME280;67706;51.074;-1.796;2023-05-29T03:14:47;102135.44;;;9.60;68.49
78411;BME280;67706;51.074;-1.796;2023-05-29T03:17:13;102141.97;;;9.59;68.41
78411;BME280;67706;51.074;-1.796;2023-05-29T03:19:40;102145.00;;;9.38;69.21
78411;BME280;67706;51.074;-1.796;2023-05-29T03:22:07;102130.72;;;9.44;68.70
78411;BME280;67706;51.074;-1.796;2023-05-29T03:24:34;102130.97;;;9.33;68.91
78411;BME280;67706;51.074;-1.796;2023-05-29T03:27:03;102142.22;;;9.30;69.37
78411;BME280;67706;51.074;-1.796;2023-05-29T03:29:31;102147.47;;;9.41;69.18
78411;BME280;67706;51.074;-1.796;2023-05-29T03:31:57;102140.81;;;9.26;69.57
78411;BME280;67706;51.074;-1.796;2023-05-29T03:34:24;102152.09;;;9.23;69.82
78411;BME280;67706;51.074;-1.796;2023-05-29T03:36:52;102150.19;;;9.24;70.00
78411;BME280;67706;51.074;-1.796;2023-05-29T03:39:18;102149.38;;;9.23;70.18
78411;BME280;67706;51.074;-1.796;2023-05-29T03:41:45;102160.25;;;9.15;70.38
78411;BME280;67706;51.074;-1.796;2023-05-29T03:44:13;102160.53;;;9.12;70.68
78411;BME280;67706;51.074;-1.796;2023-05-29T03:46:40;102166.00;;;9.12;70.79
78411;BME280;67706;51.074;-1.796;2023-05-29T03:49:06;102166.00;;;9.12;70.63
78411;BME280;67706;51.074;-1.796;2023-05-29T03:51:33;102170.88;;;9.18;70.21
78411;BME280;67706;51.074;-1.796;2023-05-29T03:54:00;102165.47;;;9.09;70.60
78411;BME280;67706;51.074;-1.796;2023-05-29T03:56:27;102178.13;;;9.10;70.56
78411;BME280;67706;51.074;-1.796;2023-05-29T03:58:54;102167.81;;;9.04;70.31
78411;BME280;67706;51.074;-1.796;2023-05-29T04:01:22;102174.00;;;9.06;70.26
78411;BME280;67706;51.074;-1.796;2023-05-29T04:03:49;102175.84;;;9.05;70.37
78411;BME280;67706;51.074;-1.796;2023-05-29T04:06:16;102182.50;;;8.85;71.20
78411;BME280;67706;51.074;-1.796;2023-05-29T04:08:43;102185.94;;;8.87;71.15
78411;BME280;67706;51.074;-1.796;2023-05-29T04:11:10;102194.75;;;8.81;71.13
78411;BME280;67706;51.074;-1.796;2023-05-29T04:13:39;102181.16;;;8.89;71.20
78411;BME280;67706;51.074;-1.796;2023-05-29T04:16:06;102189.28;;;8.81;71.20
78411;BME280;67706;51.074;-1.796;2023-05-29T04:18:34;102188.50;;;8.71;71.72
78411;BME280;67706;51.074;-1.796;2023-05-29T04:21:01;102186.56;;;8.81;71.31
78411;BME280;67706;51.074;-1.796;2023-05-29T04:23:28;102188.16;;;8.74;71.41
78411;BME280;67706;51.074;-1.796;2023-05-29T04:25:54;102194.75;;;8.81;71.42
78411;BME280;67706;51.074;-1.796;2023-05-29T04:28:21;102193.59;;;8.84;71.42
78411;BME280;67706;51.074;-1.796;2023-05-29T04:30:49;102204.19;;;8.69;71.82
78411;BME280;67706;51.074;-1.796;2023-05-29T04:33:17;102205.53;;;8.65;72.26
78411;BME280;67706;51.074;-1.796;2023-05-29T04:35:47;102203.16;;;8.70;72.10
78411;BME280;67706;51.074;-1.796;2023-05-29T04:38:14;102207.91;;;8.77;71.92
78411;BME280;67706;51.074;-1.796;2023-05-29T04:40:41;102205.00;;;8.79;71.94
78411;BME280;67706;51.074;-1.796;2023-05-29T04:43:08;102201.03;;;8.91;71.64
78411;BME280;67706;51.074;-1.796;2023-05-29T04:45:35;102210.06;;;8.74;72.37
78411;BME280;67706;51.074;-1.796;2023-05-29T04:48:03;102209.31;;;8.99;71.95
78411;BME280;67706;51.074;-1.796;2023-05-29T04:50:30;102205.22;;;9.13;71.15
78411;BME280;67706;51.074;-1.796;2023-05-29T04:52:58;102209.03;;;9.20;70.79
78411;BME280;67706;51.074;-1.796;2023-05-29T04:55:25;102203.88;;;9.17;71.19
78411;BME280;67706;51.074;-1.796;2023-05-29T04:57:52;102211.72;;;9.29;70.73
78411;BME280;67706;51.074;-1.796;2023-05-29T05:00:20;102206.22;;;8.94;72.12
78411;BME280;67706;51.074;-1.796;2023-05-29T05:02:47;102208.97;;;9.29;71.20
78411;BME280;67706;51.074;-1.796;2023-05-29T05:05:14;102212.09;;;9.52;70.37
78411;BME280;67706;51.074;-1.796;2023-05-29T05:07:41;102214.41;;;9.47;70.61
78411;BME280;67706;51.074;-1.796;2023-05-29T05:10:09;102215.63;;;9.44;70.69
78411;BME280;67706;51.074;-1.796;2023-05-29T05:12:37;102216.63;;;9.43;71.18
78411;BME280;67706;51.074;-1.796;2023-05-29T05:15:05;102222.88;;;9.53;70.78
78411;BME280;67706;51.074;-1.796;2023-05-29T05:17:31;102219.50;;;9.59;70.47
78411;BME280;67706;51.074;-1.796;2023-05-29T05:19:58;102210.50;;;9.67;70.37
78411;BME280;67706;51.074;-1.796;2023-05-29T05:22:25;102218.88;;;9.66;70.37
78411;BME280;67706;51.074;-1.796;2023-05-29T05:24:52;102218.41;;;9.70;70.05
78411;BME280;67706;51.074;-1.796;2023-05-29T05:27:21;102219.03;;;9.82;69.85
78411;BME280;67706;51.074;-1.796;2023-05-29T05:29:47;102226.31;;;9.73;70.13
78411;BME280;67706;51.074;-1.796;2023-05-29T05:32:14;102217.94;;;9.75;69.74
78411;BME280;67706;51.074;-1.796;2023-05-29T05:34:41;102219.97;;;9.73;70.27
78411;BME280;67706;51.074;-1.796;2023-05-29T05:37:08;102229.59;;;9.77;70.21
78411;BME280;67706;51.074;-1.796;2023-05-29T05:39:35;102225.69;;;9.79;70.02
78411;BME280;67706;51.074;-1.796;2023-05-29T05:42:02;102225.03;;;9.85;69.35
78411;BME280;67706;51.074;-1.796;2023-05-29T05:44:30;102221.44;;;9.85;69.11
78411;BME280;67706;51.074;-1.796;2023-05-29T05:46:56;102225.19;;;9.84;69.29
78411;BME280;67706;51.074;-1.796;2023-05-29T05:49:23;102226.78;;;9.86;69.29
78411;BME280;67706;51.074;-1.796;2023-05-29T05:51:50;102227.06;;;9.83;69.27
78411;BME280;67706;51.074;-1.796;2023-05-29T05:54:16;102229.41;;;9.96;69.06
78411;BME280;67706;51.074;-1.796;2023-05-29T05:56:43;102225.25;;;9.92;68.79
78411;BME280;67706;51.074;-1.796;2023-05-29T05:59:10;102226.00;;;10.02;68.90
78411;BME280;67706;51.074;-1.796;2023-05-29T06:01:38;102230.44;;;9.95;68.54
78411;BME280;67706;51.074;-1.796;2023-05-29T06:04:06;102236.63;;;9.97;68.29
78411;BME280;67706;51.074;-1.796;2023-05-29T06:06:34;102228.06;;;10.00;68.06
78411;BME280;67706;51.074;-1.796;2023-05-29T06:09:01;102239.03;;;10.00;68.18
78411;BME280;67706;51.074;-1.796;2023-05-29T06:11:29;102225.84;;;10.03;67.65
78411;BME280;67706;51.074;-1.796;2023-05-29T06:13:57;102220.47;;;10.11;67.37
78411;BME280;67706;51.074;-1.796;2023-05-29T06:16:23;102228.75;;;10.19;67.34
78411;BME280;67706;51.074;-1.796;2023-05-29T06:18:52;102232.41;;;10.28;67.32
78411;BME280;67706;51.074;-1.796;2023-05-29T06:21:20;102231.75;;;10.34;66.44
78411;BME280;67706;51.074;-1.796;2023-05-29T06:23:47;102236.72;;;10.30;66.46
78411;BME280;67706;51.074;-1.796;2023-05-29T06:26:13;102243.59;;;10.34;66.04
78411;BME280;67706;51.074;-1.796;2023-05-29T06:28:41;102243.72;;;10.33;65.49
78411;BME280;67706;51.074;-1.796;2023-05-29T06:31:08;102243.41;;;10.36;65.69
78411;BME280;67706;51.074;-1.796;2023-05-29T06:33:35;102242.81;;;10.50;64.97
78411;BME280;67706;51.074;-1.796;2023-05-29T06:36:04;102245.97;;;10.63;64.69
78411;BME280;67706;51.074;-1.796;2023-05-29T06:38:31;102237.78;;;10.71;64.03
78411;BME280;67706;51.074;-1.796;2023-05-29T06:40:57;102238.16;;;10.76;63.93
78411;BME280;67706;51.074;-1.796;2023-05-29T06:43:25;102252.56;;;10.78;63.67
78411;BME280;67706;51.074;-1.796;2023-05-29T06:45:52;102239.53;;;10.80;63.54
78411;BME280;67706;51.074;-1.796;2023-05-29T06:48:18;102242.63;;;10.85;62.65
78411;BME280;67706;51.074;-1.796;2023-05-29T06:50:46;102238.69;;;10.88;62.66
78411;BME280;67706;51.074;-1.796;2023-05-29T06:53:14;102241.47;;;10.96;62.39
78411;BME280;67706;51.074;-1.796;2023-05-29T06:55:41;102237.03;;;10.95;62.47
78411;BME280;67706;51.074;-1.796;2023-05-29T06:58:08;102239.28;;;10.99;62.54
78411;BME280;67706;51.074;-1.796;2023-05-29T07:00:34;102238.25;;;11.08;62.13
78411;BME280;67706;51.074;-1.796;2023-05-29T07:03:01;102238.63;;;11.13;62.33
78411;BME280;67706;51.074;-1.796;2023-05-29T07:05:28;102246.47;;;11.00;61.87
78411;BME280;67706;51.074;-1.796;2023-05-29T07:07:55;102233.09;;;11.05;61.80
78411;BME280;67706;51.074;-1.796;2023-05-29T07:10:23;102236.53;;;11.07;61.84
78411;BME280;67706;51.074;-1.796;2023-05-29T07:12:49;102247.88;;;11.12;61.41
78411;BME280;67706;51.074;-1.796;2023-05-29T07:15:16;102237.97;;;11.28;61.48
78411;BME280;67706;51.074;-1.796;2023-05-29T07:17:43;102237.97;;;11.36;60.98
78411;BME280;67706;51.074;-1.796;2023-05-29T07:20:10;102237.66;;;11.39;61.02
78411;BME280;67706;51.074;-1.796;2023-05-29T07:22:37;102245.53;;;11.42;60.45
78411;BME280;67706;51.074;-1.796;2023-05-29T07:25:04;102236.41;;;11.33;60.77
78411;BME280;67706;51.074;-1.796;2023-05-29T07:27:32;102240.72;;;11.44;61.10
78411;BME280;67706;51.074;-1.796;2023-05-29T07:30:00;102238.53;;;11.63;60.89
78411;BME280;67706;51.074;-1.796;2023-05-29T07:32:27;102226.66;;;11.63;59.68
78411;BME280;67706;51.074;-1.796;2023-05-29T07:34:54;102247.50;;;11.81;60.19
78411;BME280;67706;51.074;-1.796;2023-05-29T07:37:21;102241.50;;;11.78;59.56
78411;BME280;67706;51.074;-1.796;2023-05-29T07:39:47;102233.78;;;11.89;59.77
78411;BME280;67706;51.074;-1.796;2023-05-29T07:42:14;102239.06;;;12.07;59.39
78411;BME280;67706;51.074;-1.796;2023-05-29T07:44:42;102248.38;;;11.98;59.27
78411;BME280;67706;51.074;-1.796;2023-05-29T07:47:09;102253.16;;;11.96;58.50
78411;BME280;67706;51.074;-1.796;2023-05-29T07:49:36;102255.06;;;11.95;59.03
78411;BME280;67706;51.074;-1.796;2023-05-29T07:52:03;102246.97;;;11.94;58.70
78411;BME280;67706;51.074;-1.796;2023-05-29T07:54:31;102252.47;;;12.10;58.60
78411;BME280;67706;51.074;-1.796;2023-05-29T07:56:58;102249.91;;;12.17;58.74
78411;BME280;67706;51.074;-1.796;2023-05-29T07:59:24;102248.66;;;12.19;58.13
78411;BME280;67706;51.074;-1.796;2023-05-29T08:01:52;102248.84;;;12.18;57.67
78411;BME280;67706;51.074;-1.796;2023-05-29T08:04:23;102249.88;;;12.09;58.02
78411;BME280;67706;51.074;-1.796;2023-05-29T08:06:50;102243.34;;;12.18;58.09
78411;BME280;67706;51.074;-1.796;2023-05-29T08:09:16;102250.75;;;12.25;58.15
78411;BME280;67706;51.074;-1.796;2023-05-29T08:11:44;102249.19;;;12.31;58.11
78411;BME280;67706;51.074;-1.796;2023-05-29T08:14:11;102242.28;;;12.35;57.55
78411;BME280;67706;51.074;-1.796;2023-05-29T08:16:38;102235.56;;;12.45;57.47
78411;BME280;67706;51.074;-1.796;2023-05-29T08:19:06;102241.72;;;12.55;57.71
78411;BME280;67706;51.074;-1.796;2023-05-29T08:21:33;102245.84;;;12.59;56.75
78411;BME280;67706;51.074;-1.796;2023-05-29T08:24:00;102256.66;;;12.61;56.85
78411;BME280;67706;51.074;-1.796;2023-05-29T08:26:27;102233.25;;;12.73;56.62
78411;BME280;67706;51.074;-1.796;2023-05-29T08:28:53;102236.34;;;13.01;56.01
78411;BME280;67706;51.074;-1.796;2023-05-29T08:31:20;102240.44;;;13.21;55.27
78411;BME280;67706;51.074;-1.796;2023-05-29T08:33:49;102233.25;;;13.12;55.82
78411;BME280;67706;51.074;-1.796;2023-05-29T08:36:17;102231.31;;;13.20;55.66
78411;BME280;67706;51.074;-1.796;2023-05-29T08:38:46;102232.50;;;13.18;55.11
78411;BME280;67706;51.074;-1.796;2023-05-29T08:41:17;102234.28;;;13.11;55.34
78411;BME280;67706;51.074;-1.796;2023-05-29T08:43:48;102226.53;;;13.14;55.05
78411;BME280;67706;51.074;-1.796;2023-05-29T08:46:17;102230.97;;;13.23;55.17
78411;BME280;67706;51.074;-1.796;2023-05-29T08:48:48;102223.84;;;13.29;54.26
78411;BME280;67706;51.074;-1.796;2023-05-29T08:51:19;102234.00;;;13.28;54.17
78411;BME280;67706;51.074;-1.796;2023-05-29T08:53:46;102238.78;;;13.34;54.06
78411;BME280;67706;51.074;-1.796;2023-05-29T08:56:13;102231.44;;;13.27;54.10
78411;BME280;67706;51.074;-1.796;2023-05-29T08:58:41;102230.13;;;13.15;53.85
78411;BME280;67706;51.074;-1.796;2023-05-29T09:01:09;102235.94;;;13.28;53.69
78411;BME280;67706;51.074;-1.796;2023-05-29T09:03:35;102232.31;;;13.50;52.91
78411;BME280;67706;51.074;-1.796;2023-05-29T09:06:03;102234.09;;;13.43;52.87
78411;BME280;67706;51.074;-1.796;2023-05-29T09:08:33;102234.72;;;13.53;52.98
78411;BME280;67706;51.074;-1.796;2023-05-29T09:11:00;102234.81;;;13.60;52.95
78411;BME280;67706;51.074;-1.796;2023-05-29T09:13:27;102227.28;;;13.76;52.86
78411;BME280;67706;51.074;-1.796;2023-05-29T09:15:57;102233.78;;;13.83;52.41
78411;BME280;67706;51.074;-1.796;2023-05-29T09:18:28;102233.34;;;13.94;52.65
78411;BME280;67706;51.074;-1.796;2023-05-29T09:20:55;102222.81;;;14.12;52.61
78411;BME280;67706;51.074;-1.796;2023-05-29T09:23:22;102219.81;;;14.22;51.36
78411;BME280;67706;51.074;-1.796;2023-05-29T09:25:53;102217.78;;;14.16;51.02
78411;BME280;67706;51.074;-1.796;2023-05-29T09:28:21;102235.47;;;14.07;51.16
78411;BME280;67706;51.074;-1.796;2023-05-29T09:30:49;102226.63;;;14.11;51.14
78411;BME280;67706;51.074;-1.796;2023-05-29T09:33:16;102218.38;;;14.26;51.00
78411;BME280;67706;51.074;-1.796;2023-05-29T09:35:45;102227.91;;;14.23;50.99
78411;BME280;67706;51.074;-1.796;2023-05-29T09:38:13;102228.13;;;14.37;51.41
78411;BME280;67706;51.074;-1.796;2023-05-29T09:40:40;102221.94;;;14.35;50.82
78411;BME280;67706;51.074;-1.796;2023-05-29T09:43:11;102235.34;;;14.38;49.99
78411;BME280;67706;51.074;-1.796;2023-05-29T09:45:39;102221.56;;;14.38;50.24
78411;BME280;67706;51.074;-1.796;2023-05-29T09:48:07;102221.75;;;14.51;50.64
78411;BME280;67706;51.074;-1.796;2023-05-29T09:50:34;102239.00;;;14.53;51.04
78411;BME280;67706;51.074;-1.796;2023-05-29T09:53:01;102231.06;;;14.35;50.46
78411;BME280;67706;51.074;-1.796;2023-05-29T09:55:30;102230.69;;;14.38;51.09
78411;BME280;67706;51.074;-1.796;2023-05-29T09:57:59;102224.31;;;14.52;49.80
78411;BME280;67706;51.074;-1.796;2023-05-29T10:00:28;102235.66;;;14.57;50.05
78411;BME280;67706;51.074;-1.796;2023-05-29T10:02:56;102220.91;;;14.65;48.47
78411;BME280;67706;51.074;-1.796;2023-05-29T10:05:23;102225.94;;;14.76;48.25
78411;BME280;67706;51.074;-1.796;2023-05-29T10:07:53;102227.38;;;14.86;48.10
78411;BME280;67706;51.074;-1.796;2023-05-29T10:10:21;102230.03;;;14.80;48.77
78411;BME280;67706;51.074;-1.796;2023-05-29T10:12:53;102221.19;;;14.84;49.01
78411;BME280;67706;51.074;-1.796;2023-05-29T10:15:23;102217.00;;;14.74;49.65
78411;BME280;67706;51.074;-1.796;2023-05-29T10:17:57;102216.00;;;14.96;49.63
78411;BME280;67706;51.074;-1.796;2023-05-29T10:20:26;102217.16;;;15.01;48.59
78411;BME280;67706;51.074;-1.796;2023-05-29T10:22:56;102229.75;;;15.25;48.98
78411;BME280;67706;51.074;-1.796;2023-05-29T10:25:27;102239.19;;;15.45;47.29
78411;BME280;67706;51.074;-1.796;2023-05-29T10:27:56;102238.22;;;15.38;47.04
78411;BME280;67706;51.074;-1.796;2023-05-29T10:30:28;102230.50;;;15.34;47.20
78411;BME280;67706;51.074;-1.796;2023-05-29T10:33:11;102224.13;;;15.48;48.27
78411;BME280;67706;51.074;-1.796;2023-05-29T10:35:45;102215.09;;;15.60;46.93
78411;BME280;67706;51.074;-1.796;2023-05-29T10:38:14;102218.19;;;15.72;47.17
78411;BME280;67706;51.074;-1.796;2023-05-29T10:40:42;102220.28;;;15.91;46.30
78411;BME280;67706;51.074;-1.796;2023-05-29T10:43:30;102216.34;;;15.79;46.35
78411;BME280;67706;51.074;-1.796;2023-05-29T10:45:57;102224.72;;;15.85;47.10
78411;BME280;67706;51.074;-1.796;2023-05-29T10:48:42;102216.66;;;15.90;46.46
78411;BME280;67706;51.074;-1.796;2023-05-29T10:51:24;102221.38;;;15.97;45.36
78411;BME280;67706;51.074;-1.796;2023-05-29T10:53:51;102212.84;;;15.92;45.79
78411;BME280;67706;51.074;-1.796;2023-05-29T10:56:21;102215.25;;;16.01;46.19
78411;BME280;67706;51.074;-1.796;2023-05-29T10:58:52;102211.28;;;16.10;45.85
78411;BME280;67706;51.074;-1.796;2023-05-29T11:01:21;102214.72;;;16.12;45.67
78411;BME280;67706;51.074;-1.796;2023-05-29T11:03:50;102219.53;;;16.04;45.13
78411;BME280;67706;51.074;-1.796;2023-05-29T11:06:19;102203.97;;;16.03;44.99
78411;BME280;67706;51.074;-1.796;2023-05-29T11:08:53;102203.84;;;16.11;45.19
78411;BME280;67706;51.074;-1.796;2023-05-29T11:11:29;102206.91;;;15.95;45.65
78411;BME280;67706;51.074;-1.796;2023-05-29T11:13:57;102205.06;;;16.02;45.37
78411;BME280;67706;51.074;-1.796;2023-05-29T11:16:37;102207.88;;;16.08;45.40
78411;BME280;67706;51.074;-1.796;2023-05-29T11:19:06;102216.78;;;16.04;45.67
78411;BME280;67706;51.074;-1.796;2023-05-29T11:21:46;102201.75;;;16.19;45.65
78411;BME280;67706;51.074;-1.796;2023-05-29T11:24:21;102199.31;;;16.31;45.88
78411;BME280;67706;51.074;-1.796;2023-05-29T11:26:48;102199.97;;;16.33;45.11
78411;BME280;67706;51.074;-1.796;2023-05-29T11:29:21;102197.75;;;16.22;44.59
78411;BME280;67706;51.074;-1.796;2023-05-29T11:31:49;102196.75;;;16.36;44.98
78411;BME280;67706;51.074;-1.796;2023-05-29T11:34:25;102190.31;;;16.22;45.52
78411;BME280;67706;51.074;-1.796;2023-05-29T11:36:54;102196.41;;;16.45;46.22
78411;BME280;67706;51.074;-1.796;2023-05-29T11:39:22;102184.69;;;16.43;45.40
78411;BME280;67706;51.074;-1.796;2023-05-29T11:41:52;102193.59;;;16.39;45.40
78411;BME280;67706;51.074;-1.796;2023-05-29T11:44:19;102196.75;;;16.36;45.96
78411;BME280;67706;51.074;-1.796;2023-05-29T11:46:46;102196.72;;;16.57;45.54
78411;BME280;67706;51.074;-1.796;2023-05-29T11:49:12;102192.31;;;16.35;44.38
78411;BME280;67706;51.074;-1.796;2023-05-29T11:51:43;102192.75;;;16.66;45.01
78411;BME280;67706;51.074;-1.796;2023-05-29T11:54:12;102192.53;;;16.67;44.46
78411;BME280;67706;51.074;-1.796;2023-05-29T11:56:38;102179.56;;;16.75;44.44
78411;BME280;67706;51.074;-1.796;2023-05-29T11:59:11;102169.09;;;16.70;45.25
78411;BME280;67706;51.074;-1.796;2023-05-29T12:01:37;102176.00;;;16.87;45.25
78411;BME280;67706;51.074;-1.796;2023-05-29T12:04:14;102163.66;;;16.90;44.16
78411;BME280;67706;51.074;-1.796;2023-05-29T12:06:40;102170.38;;;17.21;44.06
78411;BME280;67706;51.074;-1.796;2023-05-29T12:09:09;102163.72;;;17.16;44.34
78411;BME280;67706;51.074;-1.796;2023-05-29T12:11:35;102150.97;;;17.28;44.41
78411;BME280;67706;51.074;-1.796;2023-05-29T12:14:02;102155.22;;;17.30;44.19
78411;BME280;67706;51.074;-1.796;2023-05-29T12:16:30;102165.06;;;17.39;43.71
78411;BME280;67706;51.074;-1.796;2023-05-29T12:18:59;102161.22;;;17.34;43.78
78411;BME280;67706;51.074;-1.796;2023-05-29T12:21:26;102154.38;;;17.23;44.29
78411;BME280;67706;51.074;-1.796;2023-05-29T12:23:54;102160.13;;;17.28;44.05
78411;BME280;67706;51.074;-1.796;2023-05-29T12:26:23;102159.06;;;17.23;43.50
78411;BME280;67706;51.074;-1.796;2023-05-29T12:28:51;102160.31;;;17.14;43.51
78411;BME280;67706;51.074;-1.796;2023-05-29T12:31:27;102164.59;;;17.16;44.15
78411;BME280;67706;51.074;-1.796;2023-05-29T12:33:59;102162.03;;;17.15;44.13
78411;BME280;67706;51.074;-1.796;2023-05-29T12:36:26;102167.41;;;17.29;44.16
78411;BME280;67706;51.074;-1.796;2023-05-29T12:38:53;102177.41;;;17.24;44.06
78411;BME280;67706;51.074;-1.796;2023-05-29T12:41:25;102159.44;;;17.07;43.77
78411;BME280;67706;51.074;-1.796;2023-05-29T12:43:54;102153.13;;;17.45;44.29
78411;BME280;67706;51.074;-1.796;2023-05-29T12:46:22;102152.13;;;17.73;44.10
78411;BME280;67706;51.074;-1.796;2023-05-29T12:48:48;102163.00;;;17.55;43.96